createdAt,value
2022-12-01T00:00:46.888Z,88312.81
2022-12-01T00:03:31.565Z,88310.72
2022-12-01T00:06:16.548Z,88311.41
2022-12-01T00:09:01.271Z,88312.81
2022-12-01T00:11:46.137Z,88309.28
2022-12-01T00:14:30.803Z,88307.91
2022-12-01T00:17:15.504Z,88307.66
2022-12-01T00:20:00.169Z,88310.22
2022-12-01T00:22:44.875Z,88305.31
2022-12-01T00:25:29.624Z,88306.25
2022-12-01T00:28:14.392Z,88301.09
2022-12-01T00:30:59.257Z,88308.34
2022-12-01T00:33:43.936Z,88302.25
2022-12-01T00:36:28.776Z,88304.63
2022-12-01T00:39:13.441Z,88306.72
2022-12-01T00:41:58.221Z,88298.28
2022-12-01T00:44:42.753Z,88310.22
2022-12-01T00:47:27.630Z,88309.75
2022-12-01T00:50:12.419Z,88308.56
2022-12-01T00:52:57.164Z,88315.88
2022-12-01T00:55:41.879Z,88315.91
2022-12-01T00:58:26.490Z,88316.16
2022-12-01T01:01:11.348Z,88313.78
2022-12-01T01:03:55.982Z,88316.59
2022-12-01T01:06:40.813Z,88316.84
2022-12-01T01:09:25.496Z,88315.94
2022-12-01T01:12:11.493Z,88322.00
2022-12-01T01:14:56.394Z,88319.66
2022-12-01T01:17:41.044Z,88322.47
2022-12-01T01:20:25.747Z,88322.47
2022-12-01T01:23:10.402Z,88325.28
2022-12-01T01:25:55.033Z,88327.16
2022-12-01T01:28:39.819Z,88328.81
2022-12-01T01:31:24.703Z,88337.47
2022-12-01T01:34:09.391Z,88334.41
2022-12-01T01:36:54.250Z,88329.03
2022-12-01T01:39:39.040Z,88333.00
2022-12-01T01:42:23.829Z,88326.66
2022-12-01T01:45:08.570Z,88317.31
2022-12-01T01:47:53.384Z,88321.97
2022-12-01T01:50:38.190Z,88327.59
2022-12-01T01:53:23.073Z,88328.97
2022-12-01T01:56:07.749Z,88325.22
2022-12-01T01:58:52.491Z,88323.56
2022-12-01T02:01:37.410Z,88326.41
2022-12-01T02:04:21.988Z,88318.22
2022-12-01T02:07:06.952Z,88319.16
2022-12-01T02:09:51.773Z,88324.53
2022-12-01T02:12:36.973Z,88321.25
2022-12-01T02:15:21.740Z,88327.81
2022-12-01T02:18:06.623Z,88321.50
2022-12-01T02:20:51.453Z,88317.50
2022-12-01T02:23:36.155Z,88317.06
2022-12-01T02:26:20.906Z,88313.09
2022-12-01T02:29:05.607Z,88308.19
2022-12-01T02:31:50.395Z,88305.81
2022-12-01T02:34:35.058Z,88308.88
2022-12-01T02:37:19.850Z,88306.53
2022-12-01T02:40:04.573Z,88311.69
2022-12-01T02:42:49.359Z,88313.34
2022-12-01T02:45:34.023Z,88306.53
2022-12-01T02:48:18.766Z,88315.69
2022-12-01T02:51:03.590Z,88313.34
2022-12-01T02:53:48.239Z,88309.59
2022-12-01T02:56:33.002Z,88302.13
2022-12-01T02:59:17.828Z,88310.09
2022-12-01T03:02:02.653Z,88313.81
2022-12-01T03:04:47.447Z,88313.13
2022-12-01T03:07:32.273Z,88313.38
2022-12-01T03:10:17.023Z,88313.13
2022-12-01T03:13:01.993Z,88315.25
2022-12-01T03:15:46.756Z,88305.66
2022-12-01T03:18:31.523Z,88314.31
2022-12-01T03:21:16.494Z,88309.84
2022-12-01T03:24:01.222Z,88308.91
2022-12-01T03:26:46.193Z,88294.41
2022-12-01T03:29:30.875Z,88298.16
2022-12-01T03:32:15.718Z,88290.88
2022-12-01T03:35:00.435Z,88296.28
2022-12-01T03:37:45.163Z,88291.59
2022-12-01T03:40:29.836Z,88294.63
2022-12-01T03:43:14.739Z,88299.34
2022-12-01T03:45:59.565Z,88296.75
2022-12-01T03:48:44.079Z,88300.25
2022-12-01T03:51:28.972Z,88300.03
2022-12-01T03:54:13.692Z,88299.09
2022-12-01T03:56:58.576Z,88305.41
2022-12-01T03:59:43.122Z,88308.44
2022-12-01T04:02:27.931Z,88307.75
2022-12-01T04:05:13.090Z,88303.06
2022-12-01T04:07:57.997Z,88306.34
2022-12-01T04:10:43.166Z,88307.75
2022-12-01T04:13:27.873Z,88307.53
2022-12-01T04:16:12.664Z,88307.75
2022-12-01T04:18:57.328Z,88309.38
2022-12-01T04:21:42.198Z,88303.31
2022-12-01T04:24:26.912Z,88307.97
2022-12-01T04:27:11.741Z,88307.50
2022-12-01T04:29:56.334Z,88311.97
2022-12-01T04:32:41.204Z,88303.78
2022-12-01T04:35:25.739Z,88304.47
2022-12-01T04:38:10.440Z,88309.84
2022-12-01T04:40:55.182Z,88306.34
2022-12-01T04:43:40.051Z,88304.47
2022-12-01T04:46:25.049Z,88304.25
2022-12-01T04:49:10.210Z,88298.38
2022-12-01T04:51:54.992Z,88288.78
2022-12-01T04:54:39.749Z,88299.09
2022-12-01T04:57:24.602Z,88299.78
2022-12-01T05:00:09.171Z,88307.75
2022-12-01T05:02:53.952Z,88301.91
2022-12-01T05:05:38.684Z,88308.69
2022-12-01T05:08:23.360Z,88307.03
2022-12-01T05:11:08.026Z,88308.91
2022-12-01T05:13:52.759Z,88308.91
2022-12-01T05:16:37.736Z,88302.13
2022-12-01T05:19:22.891Z,88306.34
2022-12-01T05:22:07.763Z,88310.53
2022-12-01T05:24:52.487Z,88315.91
2022-12-01T05:27:37.173Z,88314.03
2022-12-01T05:30:25.641Z,88323.38
2022-12-01T05:33:13.098Z,88325.50
2022-12-01T05:35:58.047Z,88324.09
2022-12-01T05:38:42.826Z,88326.91
2022-12-01T05:41:27.567Z,88328.06
2022-12-01T05:44:12.324Z,88329.72
2022-12-01T05:46:57.291Z,88333.47
2022-12-01T05:49:42.050Z,88329.97
2022-12-01T05:52:26.757Z,88330.44
2022-12-01T05:55:11.690Z,88329.03
2022-12-01T05:57:56.362Z,88334.66
2022-12-01T06:00:45.743Z,88334.66
2022-12-01T06:03:30.952Z,88340.97
2022-12-01T06:06:15.676Z,88333.25
2022-12-01T06:09:00.536Z,88334.19
2022-12-01T06:11:48.011Z,88332.09
2022-12-01T06:14:35.115Z,88341.91
2022-12-01T06:17:19.952Z,88338.19
2022-12-01T06:20:04.714Z,88339.56
2022-12-01T06:22:49.523Z,88348.69
2022-12-01T06:25:34.329Z,88348.22
2022-12-01T06:28:19.179Z,88347.31
2022-12-01T06:31:03.981Z,88355.28
2022-12-01T06:33:48.722Z,88356.91
2022-12-01T06:36:33.399Z,88354.56
2022-12-01T06:39:18.223Z,88355.00
2022-12-01T06:42:03.022Z,88363.91
2022-12-01T06:44:47.811Z,88353.59
2022-12-01T06:47:32.636Z,88360.41
2022-12-01T06:50:17.367Z,88366.22
2022-12-01T06:53:02.274Z,88368.81
2022-12-01T06:55:46.964Z,88366.22
2022-12-01T06:58:32.400Z,88369.72
2022-12-01T07:01:17.595Z,88367.84
2022-12-01T07:04:02.501Z,88382.38
2022-12-01T07:06:47.227Z,88384.50
2022-12-01T07:09:31.897Z,88381.00
2022-12-01T07:12:16.702Z,88376.09
2022-12-01T07:15:01.535Z,88374.91
2022-12-01T07:17:46.260Z,88378.44
2022-12-01T07:20:31.082Z,88378.44
2022-12-01T07:23:15.811Z,88382.19
2022-12-01T07:26:00.477Z,88387.13
2022-12-01T07:28:45.343Z,88383.13
2022-12-01T07:31:30.081Z,88384.78
2022-12-01T07:34:15.254Z,88387.13
2022-12-01T07:37:00.096Z,88386.91
2022-12-01T07:39:44.800Z,88395.56
2022-12-01T07:42:29.655Z,88396.72
2022-12-01T07:45:14.263Z,88399.78
2022-12-01T07:47:59.023Z,88403.28
2022-12-01T07:50:43.760Z,88404.00
2022-12-01T07:53:28.674Z,88407.28
2022-12-01T07:56:13.383Z,88415.47
2022-12-01T07:58:58.174Z,88411.25
2022-12-01T08:01:44.689Z,88420.38
2022-12-01T08:04:29.709Z,88414.53
2022-12-01T08:07:14.553Z,88416.41
2022-12-01T08:09:59.251Z,88414.75
2022-12-01T08:12:44.039Z,88416.63
2022-12-01T08:15:28.801Z,88413.13
2022-12-01T08:18:13.479Z,88413.34
2022-12-01T08:20:58.163Z,88414.28
2022-12-01T08:23:43.060Z,88412.41
2022-12-01T08:26:27.876Z,88412.41
2022-12-01T08:29:17.044Z,88417.31
2022-12-01T08:32:04.971Z,88414.03
2022-12-01T08:34:53.514Z,88410.50
2022-12-01T08:37:38.443Z,88414.03
2022-12-01T08:40:23.103Z,88410.72
2022-12-01T08:43:07.876Z,88403.25
2022-12-01T08:45:52.691Z,88413.34
2022-12-01T08:48:37.395Z,88410.75
2022-12-01T08:51:22.003Z,88410.53
2022-12-01T08:54:06.812Z,88410.03
2022-12-01T08:56:51.436Z,88409.31
2022-12-01T08:59:36.276Z,88409.78
2022-12-01T09:02:21.080Z,88411.38
2022-12-01T09:05:05.853Z,88411.56
2022-12-01T09:07:50.504Z,88409.88
2022-12-01T09:10:35.254Z,88403.25
2022-12-01T09:13:20.217Z,88415.66
2022-12-01T09:16:04.994Z,88408.50
2022-12-01T09:18:49.760Z,88411.50
2022-12-01T09:21:34.399Z,88411.88
2022-12-01T09:24:19.362Z,88414.38
2022-12-01T09:27:04.023Z,88418.81
2022-12-01T09:29:48.829Z,88418.31
2022-12-01T09:32:33.801Z,88421.81
2022-12-01T09:35:23.115Z,88414.81
2022-12-01T09:38:08.218Z,88410.78
2022-12-01T09:40:52.920Z,88421.81
2022-12-01T09:43:37.523Z,88417.66
2022-12-01T09:46:22.436Z,88416.19
2022-12-01T09:49:07.257Z,88412.28
2022-12-01T09:51:52.181Z,88409.97
2022-12-01T09:54:37.004Z,88419.13
2022-12-01T09:57:21.856Z,88413.44
2022-12-01T10:00:06.426Z,88408.59
2022-12-01T10:02:51.257Z,88413.41
2022-12-01T10:05:35.876Z,88406.06
2022-12-01T10:08:26.682Z,88406.19
2022-12-01T10:11:11.963Z,88409.03
2022-12-01T10:13:56.659Z,88401.16
2022-12-01T10:16:41.581Z,88403.47
2022-12-01T10:19:26.698Z,88398.56
2022-12-01T10:22:11.538Z,88392.00
2022-12-01T10:24:56.264Z,88389.25
2022-12-01T10:27:41.523Z,88390.88
2022-12-01T10:30:26.287Z,88386.03
2022-12-01T10:33:11.017Z,88381.03
2022-12-01T10:35:55.822Z,88377.72
2022-12-01T10:38:40.663Z,88381.75
2022-12-01T10:41:25.446Z,88374.69
2022-12-01T10:44:10.211Z,88373.50
2022-12-01T10:46:54.933Z,88366.69
2022-12-01T10:49:39.770Z,88372.31
2022-12-01T10:52:24.506Z,88357.00
2022-12-01T10:55:09.250Z,88358.97
2022-12-01T10:57:54.009Z,88356.81
2022-12-01T11:03:43.628Z,88350.84
2022-12-01T11:06:28.506Z,88353.31
2022-12-01T11:09:13.234Z,88355.22
2022-12-01T11:11:58.005Z,88354.34
2022-12-01T11:14:42.862Z,88351.69
2022-12-01T11:17:27.388Z,88345.41
2022-12-01T11:20:12.345Z,88342.56
2022-12-01T11:22:57.480Z,88344.06
2022-12-01T11:25:42.321Z,88332.44
2022-12-01T11:28:27.078Z,88336.19
2022-12-01T11:31:11.768Z,88334.28
2022-12-01T11:33:56.486Z,88334.13
2022-12-01T11:36:41.297Z,88330.53
2022-12-01T11:39:25.924Z,88323.00
2022-12-01T11:42:10.765Z,88329.53
2022-12-01T11:44:55.587Z,88326.75
2022-12-01T11:47:40.242Z,88326.06
2022-12-01T11:50:25.132Z,88323.28
2022-12-01T11:53:09.794Z,88323.59
2022-12-01T11:55:55.533Z,88317.84
2022-12-01T11:58:40.430Z,88314.72
2022-12-01T12:01:25.094Z,88318.56
2022-12-01T12:04:09.845Z,88308.50
2022-12-01T12:06:54.778Z,88313.38
2022-12-01T12:09:44.933Z,88316.94
2022-12-01T12:12:30.554Z,88306.63
2022-12-01T12:15:15.463Z,88304.56
2022-12-01T12:18:00.317Z,88308.75
2022-12-01T12:20:45.051Z,88310.22
2022-12-01T12:23:29.748Z,88311.88
2022-12-01T12:26:14.515Z,88305.53
2022-12-01T12:28:59.350Z,88305.59
2022-12-01T12:31:43.926Z,88313.06
2022-12-01T12:34:28.641Z,88304.09
2022-12-01T12:37:13.343Z,88305.50
2022-12-01T12:39:58.136Z,88304.09
2022-12-01T12:42:42.966Z,88306.00
2022-12-01T12:45:27.663Z,88303.66
2022-12-01T12:48:12.472Z,88298.94
2022-12-01T12:50:57.259Z,88300.06
2022-12-01T12:53:42.068Z,88297.16
2022-12-01T12:56:26.872Z,88293.38
2022-12-01T12:59:11.878Z,88293.53
2022-12-01T13:01:56.601Z,88291.25
2022-12-01T13:04:41.331Z,88282.00
2022-12-01T13:07:26.149Z,88289.88
2022-12-01T13:10:11.164Z,88284.63
2022-12-01T13:12:56.073Z,88284.81
2022-12-01T13:15:40.933Z,88285.31
2022-12-01T13:18:25.629Z,88282.31
2022-12-01T13:21:10.403Z,88282.66
2022-12-01T13:23:55.145Z,88276.53
2022-12-01T13:26:39.832Z,88273.34
2022-12-01T13:29:24.595Z,88280.41
2022-12-01T13:32:09.307Z,88278.09
2022-12-01T13:34:54.199Z,88275.09
2022-12-01T13:37:38.841Z,88274.13
2022-12-01T13:40:23.689Z,88268.88
2022-12-01T13:43:10.946Z,88274.66
2022-12-01T13:45:55.809Z,88274.09
2022-12-01T13:48:40.627Z,88274.25
2022-12-01T13:51:25.367Z,88277.63
2022-12-01T13:54:10.171Z,88268.78
2022-12-01T13:56:54.836Z,88274.00
2022-12-01T13:59:39.607Z,88271.75
2022-12-01T14:02:24.494Z,88267.22
2022-12-01T14:05:09.752Z,88260.56
2022-12-01T14:07:54.670Z,88266.56
2022-12-01T14:10:39.603Z,88268.69
2022-12-01T14:13:24.495Z,88272.25
2022-12-01T14:16:09.153Z,88269.28
2022-12-01T14:18:54.407Z,88269.06
2022-12-01T14:21:39.063Z,88269.81
2022-12-01T14:24:23.838Z,88271.91
2022-12-01T14:27:08.804Z,88281.34
2022-12-01T14:29:53.862Z,88270.53
2022-12-01T14:32:38.689Z,88271.50
2022-12-01T14:35:23.289Z,88275.28
2022-12-01T14:38:08.015Z,88277.47
2022-12-01T14:40:52.656Z,88281.75
2022-12-01T14:43:37.554Z,88272.19
2022-12-01T14:46:22.140Z,88279.72
2022-12-01T14:49:06.774Z,88278.31
2022-12-01T14:51:51.414Z,88279.53
2022-12-01T14:54:36.182Z,88269.22
2022-12-01T14:57:20.900Z,88275.56
2022-12-01T15:00:05.748Z,88275.81
2022-12-01T15:02:50.575Z,88275.38
2022-12-01T15:05:35.500Z,88283.84
2022-12-01T15:08:40.926Z,88286.47
2022-12-01T15:11:25.063Z,88278.28
2022-12-01T15:14:09.762Z,88276.91
2022-12-01T15:16:54.625Z,88287.44
2022-12-01T15:19:39.641Z,88288.88
2022-12-01T15:22:24.649Z,88286.78
2022-12-01T15:25:09.287Z,88282.06
2022-12-01T15:27:54.080Z,88283.50
2022-12-01T15:30:38.737Z,88288.13
2022-12-01T15:33:27.295Z,88285.78
2022-12-01T15:36:13.225Z,88288.09
2022-12-01T15:39:03.596Z,88285.75
2022-12-01T15:41:51.667Z,88302.63
2022-12-01T15:44:36.467Z,88297.91
2022-12-01T15:47:21.331Z,88287.16
2022-12-01T15:50:06.116Z,88291.66
2022-12-01T15:52:50.880Z,88292.63
2022-12-01T15:55:35.650Z,88293.56
2022-12-01T15:58:20.358Z,88288.66
2022-12-01T16:01:05.151Z,88294.06
2022-12-01T16:03:49.892Z,88301.81
2022-12-01T16:06:34.549Z,88295.25
2022-12-01T16:09:19.379Z,88299.22
2022-12-01T16:12:04.152Z,88300.41
2022-12-01T16:14:49.345Z,88301.59
2022-12-01T16:17:34.995Z,88305.34
2022-12-01T16:20:19.781Z,88303.03
2022-12-01T16:23:04.565Z,88302.56
2022-12-01T16:25:49.320Z,88307.47
2022-12-01T16:28:34.147Z,88308.66
2022-12-01T16:31:18.867Z,88311.25
2022-12-01T16:34:13.765Z,88310.78
2022-12-01T16:37:03.491Z,88310.28
2022-12-01T16:39:48.254Z,88308.41
2022-12-01T16:42:32.977Z,88311.94
2022-12-01T16:45:17.730Z,88307.03
2022-12-01T16:48:09.034Z,88311.47
2022-12-01T16:50:54.435Z,88313.13
2022-12-01T16:53:39.014Z,88307.03
2022-12-01T16:56:23.873Z,88317.34
2022-12-01T16:59:08.643Z,88313.34
2022-12-01T17:01:53.521Z,88311.94
2022-12-01T17:04:38.178Z,88315.44
2022-12-01T17:07:23.087Z,88320.59
2022-12-01T17:10:07.726Z,88321.31
2022-12-01T17:12:52.610Z,88317.34
2022-12-01T17:15:37.333Z,88325.53
2022-12-01T17:18:22.011Z,88321.56
2022-12-01T17:21:06.731Z,88326.00
2022-12-01T17:23:51.632Z,88322.72
2022-12-01T17:26:36.529Z,88321.31
2022-12-01T17:29:21.203Z,88321.31
2022-12-01T17:32:06.030Z,88329.28
2022-12-01T17:34:50.963Z,88335.84
2022-12-01T17:37:36.129Z,88334.44
2022-12-01T17:40:20.783Z,88339.59
2022-12-01T17:43:05.671Z,88335.59
2022-12-01T17:45:50.277Z,88345.19
2022-12-01T17:48:35.165Z,88341.91
2022-12-01T17:51:20.047Z,88342.84
2022-12-01T17:54:04.894Z,88349.16
2022-12-01T17:56:49.662Z,88347.50
2022-12-01T17:59:34.310Z,88343.31
2022-12-01T18:02:19.248Z,88348.25
2022-12-01T18:05:04.287Z,88349.41
2022-12-01T18:07:49.101Z,88344.50
2022-12-01T18:10:33.827Z,88354.59
2022-12-01T18:13:21.223Z,88348.72
2022-12-01T18:16:06.694Z,88350.59
2022-12-01T18:18:51.565Z,88352.69
2022-12-01T18:21:36.325Z,88353.41
2022-12-01T18:24:21.059Z,88349.88
2022-12-01T18:27:05.853Z,88349.88
2022-12-01T18:29:50.483Z,88353.16
2022-12-01T18:32:35.140Z,88349.88
2022-12-01T18:35:19.890Z,88348.00
2022-12-01T18:38:04.731Z,88347.06
2022-12-01T18:40:49.556Z,88350.38
2022-12-01T18:43:34.304Z,88355.53
2022-12-01T18:46:19.289Z,88354.34
2022-12-01T18:49:04.074Z,88351.28
2022-12-01T18:51:48.899Z,88352.00
2022-12-01T18:54:33.710Z,88357.59
2022-12-01T18:57:18.486Z,88355.28
2022-12-01T19:00:03.074Z,88354.34
2022-12-01T19:02:47.861Z,88359.25
2022-12-01T19:05:32.607Z,88353.63
2022-12-01T19:08:17.346Z,88348.47
2022-12-01T19:11:02.584Z,88351.25
2022-12-01T19:13:47.425Z,88348.22
2022-12-01T19:16:32.316Z,88351.03
2022-12-01T19:19:17.463Z,88361.59
2022-12-01T19:22:02.366Z,88356.91
2022-12-01T19:24:50.226Z,88350.59
2022-12-01T19:27:35.303Z,88361.59
2022-12-01T19:30:20.162Z,88356.69
2022-12-01T19:33:04.745Z,88357.13
2022-12-01T19:35:49.459Z,88356.69
2022-12-01T19:38:34.075Z,88354.09
2022-12-01T19:41:19.403Z,88353.63
2022-12-01T19:44:04.103Z,88355.25
2022-12-01T19:46:49.114Z,88346.13
2022-12-01T19:49:33.745Z,88356.91
2022-12-01T19:52:18.512Z,88350.59
2022-12-01T19:55:03.235Z,88356.44
2022-12-01T19:57:47.914Z,88357.84
2022-12-01T20:00:32.720Z,88354.09
2022-12-01T20:03:17.426Z,88366.06
2022-12-01T20:06:02.202Z,88365.13
2022-12-01T20:08:46.884Z,88368.16
2022-12-01T20:11:31.800Z,88369.56
2022-12-01T20:14:16.563Z,88369.31
2022-12-01T20:17:01.345Z,88370.03
2022-12-01T20:19:46.600Z,88368.41
2022-12-01T20:22:31.427Z,88370.25
2022-12-01T20:25:16.138Z,88374.22
2022-12-01T20:28:00.828Z,88370.72
2022-12-01T20:30:45.621Z,88375.88
2022-12-01T20:33:30.248Z,88376.59
2022-12-01T20:36:15.019Z,88375.19
2022-12-01T20:38:59.757Z,88372.81
2022-12-01T20:41:44.654Z,88371.41
2022-12-01T20:44:29.425Z,88370.50
2022-12-01T20:47:13.995Z,88365.81
2022-12-01T20:49:58.939Z,88370.50
2022-12-01T20:52:43.727Z,88372.38
2022-12-01T20:55:28.567Z,88369.53
2022-12-01T20:58:13.457Z,88366.75
2022-12-01T21:00:58.504Z,88373.78
2022-12-01T21:03:43.539Z,88372.34
2022-12-01T21:06:28.352Z,88365.09
2022-12-01T21:09:13.118Z,88371.66
2022-12-01T21:11:57.868Z,88367.66
2022-12-01T21:14:42.756Z,88363.66
2022-12-01T21:17:27.403Z,88363.88
2022-12-01T21:20:12.119Z,88365.06
2022-12-01T21:22:57.075Z,88361.78
2022-12-01T21:25:41.865Z,88353.13
2022-12-01T21:28:26.612Z,88347.75
2022-12-01T21:31:11.472Z,88356.66
2022-12-01T21:33:56.704Z,88355.50
2022-12-01T21:36:41.495Z,88356.41
2022-12-01T21:39:26.407Z,88358.53
2022-12-01T21:42:11.063Z,88352.91
2022-12-01T21:44:55.948Z,88359.69
2022-12-01T21:47:40.602Z,88354.78
2022-12-01T21:50:25.503Z,88355.50
2022-12-01T21:53:10.159Z,88354.56
2022-12-01T21:55:54.949Z,88354.78
2022-12-01T21:58:39.698Z,88360.41
2022-12-01T22:01:24.443Z,88353.13
2022-12-01T22:04:09.072Z,88358.97
2022-12-01T22:06:53.816Z,88364.56
2022-12-01T22:09:38.654Z,88357.56
2022-12-01T22:12:23.436Z,88352.19
2022-12-01T22:15:08.083Z,88360.88
2022-12-01T22:17:52.848Z,88354.53
2022-12-01T22:20:37.743Z,88351.28
2022-12-01T22:23:22.603Z,88355.94
2022-12-01T22:26:07.402Z,88359.00
2022-12-01T22:28:52.238Z,88355.94
2022-12-01T22:31:36.904Z,88353.38
2022-12-01T22:34:21.638Z,88349.16
2022-12-01T22:37:06.391Z,88351.03
2022-12-01T22:39:51.296Z,88353.84
2022-12-01T22:42:36.045Z,88352.19
2022-12-01T22:45:20.890Z,88343.53
2022-12-01T22:48:05.573Z,88356.63
2022-12-01T22:50:52.060Z,88354.97
2022-12-01T22:53:37.151Z,88352.66
2022-12-01T22:56:21.954Z,88352.41
2022-12-01T22:59:06.571Z,88359.44
2022-12-01T23:01:51.474Z,88351.25
2022-12-01T23:04:36.697Z,88361.06
2022-12-01T23:07:21.482Z,88359.38
2022-12-01T23:10:06.663Z,88356.03
2022-12-01T23:12:51.899Z,88355.34
2022-12-01T23:15:36.862Z,88359.34
2022-12-01T23:18:21.687Z,88354.41
2022-12-01T23:21:06.455Z,88354.91
2022-12-01T23:23:51.058Z,88351.84
2022-12-01T23:26:35.856Z,88346.47
2022-12-01T23:29:20.566Z,88351.38
2022-12-01T23:32:05.362Z,88344.59
2022-12-01T23:34:52.725Z,88346.44
2022-12-01T23:37:40.676Z,88337.97
2022-12-01T23:40:25.390Z,88337.72
2022-12-01T23:43:10.109Z,88334.44
2022-12-01T23:45:55.072Z,88336.75
2022-12-01T23:48:39.891Z,88329.91
2022-12-01T23:51:24.574Z,88332.72
2022-12-01T23:54:09.393Z,88333.22
2022-12-01T23:56:54.170Z,88333.25
2022-12-01T23:59:38.949Z,88332.34
